KONA/ONA METAR and TAF weather

Enter ICAO airport designator
Station Type Date Time Source
KONA METAR 2020/07/05 03:15 UTC NOAA

KONA 050315Z AUTO 00000KT 10SM CLR 25/24 A3000 RMK AO2


Station Type Date Time Source
KONA Decoded METAR 2020/07/05 03:15 UTC NOAA

Winona, Winona Municipal Airport-Max Conrad Field, MN, United States (KONA) 44-05N 091-42W
Jul 04, 2020 - 11:15 PM EDT / 2020.07.05 0315 UTC
Wind: Calm:0
Visibility: 10 mile(s):0
Sky conditions: clear
Temperature: 77 F (25 C)
Dew Point: 75 F (24 C)
Relative Humidity: 94%
Pressure (altimeter): 30 in. Hg (1015 hPa)
ob: KONA 050315Z AUTO 00000KT 10SM CLR 25/24 A3000 RMK AO2
cycle: 3

Station Type Date Time Source
KONA TAF UTC NOAA

Error!

Example: see airport list